sensor_id;sensor_type;location;lat;lon;timestamp;P1;durP1;ratioP1;P2;durP2;ratioP2
16685;SDS011;8456;51.136;4.210;2022-09-01T00:02:07;2.33;;;1.10;;
16685;SDS011;8456;51.136;4.210;2022-09-01T00:04:34;2.73;;;1.53;;
16685;SDS011;8456;51.136;4.210;2022-09-01T00:07:06;2.47;;;1.27;;
16685;SDS011;8456;51.136;4.210;2022-09-01T00:09:33;4.63;;;1.30;;
16685;SDS011;8456;51.136;4.210;2022-09-01T00:12:00;4.43;;;1.17;;
16685;SDS011;8456;51.136;4.210;2022-09-01T00:14:27;4.33;;;1.20;;
16685;SDS011;8456;51.136;4.210;2022-09-01T00:16:56;3.27;;;1.10;;
16685;SDS011;8456;51.136;4.210;2022-09-01T00:19:29;4.33;;;1.60;;
16685;SDS011;8456;51.136;4.210;2022-09-01T00:21:57;5.87;;;1.30;;
16685;SDS011;8456;51.136;4.210;2022-09-01T00:24:24;5.57;;;1.60;;
16685;SDS011;8456;51.136;4.210;2022-09-01T00:26:50;5.13;;;1.50;;
16685;SDS011;8456;51.136;4.210;2022-09-01T00:29:18;6.13;;;1.23;;
16685;SDS011;8456;51.136;4.210;2022-09-01T00:31:44;3.13;;;1.60;;
16685;SDS011;8456;51.136;4.210;2022-09-01T00:34:10;3.63;;;1.50;;
16685;SDS011;8456;51.136;4.210;2022-09-01T00:36:36;3.03;;;1.43;;
16685;SDS011;8456;51.136;4.210;2022-09-01T00:39:03;1.57;;;1.10;;
16685;SDS011;8456;51.136;4.210;2022-09-01T00:41:30;3.93;;;1.40;;
16685;SDS011;8456;51.136;4.210;2022-09-01T00:43:59;4.00;;;1.67;;
16685;SDS011;8456;51.136;4.210;2022-09-01T00:46:31;8.67;;;1.40;;
16685;SDS011;8456;51.136;4.210;2022-09-01T00:49:16;4.37;;;1.60;;
16685;SDS011;8456;51.136;4.210;2022-09-01T00:51:48;7.97;;;1.63;;
16685;SDS011;8456;51.136;4.210;2022-09-01T00:54:21;3.60;;;1.90;;
16685;SDS011;8456;51.136;4.210;2022-09-01T00:56:50;3.97;;;1.60;;
16685;SDS011;8456;51.136;4.210;2022-09-01T00:59:18;4.97;;;1.60;;
16685;SDS011;8456;51.136;4.210;2022-09-01T01:01:46;3.10;;;1.60;;
16685;SDS011;8456;51.136;4.210;2022-09-01T01:04:12;3.50;;;1.57;;
16685;SDS011;8456;51.136;4.210;2022-09-01T01:06:45;4.90;;;1.67;;
16685;SDS011;8456;51.136;4.210;2022-09-01T01:09:18;2.97;;;1.40;;
16685;SDS011;8456;51.136;4.210;2022-09-01T01:11:46;2.97;;;1.40;;
16685;SDS011;8456;51.136;4.210;2022-09-01T01:14:13;4.70;;;1.77;;
16685;SDS011;8456;51.136;4.210;2022-09-01T01:16:42;2.23;;;1.80;;
16685;SDS011;8456;51.136;4.210;2022-09-01T01:19:26;4.20;;;1.43;;
16685;SDS011;8456;51.136;4.210;2022-09-01T01:25:27;3.90;;;1.50;;
16685;SDS011;8456;51.136;4.210;2022-09-01T01:28:06;2.60;;;1.57;;
16685;SDS011;8456;51.136;4.210;2022-09-01T01:30:39;2.27;;;1.77;;
16685;SDS011;8456;51.136;4.210;2022-09-01T01:33:13;1.70;;;1.20;;
16685;SDS011;8456;51.136;4.210;2022-09-01T01:35:39;6.70;;;1.70;;
16685;SDS011;8456;51.136;4.210;2022-09-01T01:38:06;3.53;;;1.83;;
16685;SDS011;8456;51.136;4.210;2022-09-01T01:40:33;4.60;;;1.50;;
16685;SDS011;8456;51.136;4.210;2022-09-01T01:43:00;6.13;;;1.47;;
16685;SDS011;8456;51.136;4.210;2022-09-01T01:45:27;2.37;;;1.50;;
16685;SDS011;8456;51.136;4.210;2022-09-01T01:47:54;3.57;;;1.57;;
16685;SDS011;8456;51.136;4.210;2022-09-01T01:50:23;2.23;;;1.43;;
16685;SDS011;8456;51.136;4.210;2022-09-01T01:52:51;2.83;;;1.70;;
16685;SDS011;8456;51.136;4.210;2022-09-01T01:55:19;3.40;;;1.87;;
16685;SDS011;8456;51.136;4.210;2022-09-01T01:57:47;2.33;;;1.40;;
16685;SDS011;8456;51.136;4.210;2022-09-01T02:00:19;7.53;;;1.60;;
16685;SDS011;8456;51.136;4.210;2022-09-01T02:02:47;2.53;;;1.37;;
16685;SDS011;8456;51.136;4.210;2022-09-01T02:05:20;4.20;;;1.77;;
16685;SDS011;8456;51.136;4.210;2022-09-01T02:07:51;3.00;;;1.70;;
16685;SDS011;8456;51.136;4.210;2022-09-01T02:10:23;4.70;;;1.60;;
16685;SDS011;8456;51.136;4.210;2022-09-01T02:12:50;5.53;;;1.60;;
16685;SDS011;8456;51.136;4.210;2022-09-01T02:15:17;2.43;;;1.70;;
16685;SDS011;8456;51.136;4.210;2022-09-01T02:17:43;10.63;;;2.20;;
16685;SDS011;8456;51.136;4.210;2022-09-01T02:20:11;5.13;;;1.80;;
16685;SDS011;8456;51.136;4.210;2022-09-01T02:22:40;6.13;;;1.70;;
16685;SDS011;8456;51.136;4.210;2022-09-01T02:25:08;6.23;;;1.60;;
16685;SDS011;8456;51.136;4.210;2022-09-01T02:27:35;6.47;;;2.00;;
16685;SDS011;8456;51.136;4.210;2022-09-01T02:30:03;2.70;;;1.50;;
16685;SDS011;8456;51.136;4.210;2022-09-01T02:32:36;4.60;;;1.83;;
16685;SDS011;8456;51.136;4.210;2022-09-01T02:35:03;5.87;;;1.87;;
16685;SDS011;8456;51.136;4.210;2022-09-01T02:37:31;4.07;;;1.60;;
16685;SDS011;8456;51.136;4.210;2022-09-01T02:39:58;8.80;;;2.00;;
16685;SDS011;8456;51.136;4.210;2022-09-01T02:42:24;2.43;;;1.60;;
16685;SDS011;8456;51.136;4.210;2022-09-01T02:44:54;2.10;;;1.70;;
16685;SDS011;8456;51.136;4.210;2022-09-01T02:47:21;6.53;;;1.73;;
16685;SDS011;8456;51.136;4.210;2022-09-01T02:49:49;4.70;;;1.90;;
16685;SDS011;8456;51.136;4.210;2022-09-01T02:52:15;3.77;;;1.90;;
16685;SDS011;8456;51.136;4.210;2022-09-01T02:54:42;5.63;;;1.70;;
16685;SDS011;8456;51.136;4.210;2022-09-01T02:57:11;4.53;;;1.80;;
16685;SDS011;8456;51.136;4.210;2022-09-01T02:59:37;5.33;;;1.90;;
16685;SDS011;8456;51.136;4.210;2022-09-01T03:02:03;4.83;;;2.13;;
16685;SDS011;8456;51.136;4.210;2022-09-01T03:04:31;3.50;;;2.30;;
16685;SDS011;8456;51.136;4.210;2022-09-01T03:06:59;2.47;;;2.00;;
16685;SDS011;8456;51.136;4.210;2022-09-01T03:09:26;5.20;;;2.17;;
16685;SDS011;8456;51.136;4.210;2022-09-01T03:11:52;7.07;;;2.20;;
16685;SDS011;8456;51.136;4.210;2022-09-01T03:14:19;3.83;;;2.10;;
16685;SDS011;8456;51.136;4.210;2022-09-01T03:16:46;6.83;;;2.40;;
16685;SDS011;8456;51.136;4.210;2022-09-01T03:19:12;7.37;;;2.43;;
16685;SDS011;8456;51.136;4.210;2022-09-01T03:21:40;5.53;;;2.70;;
16685;SDS011;8456;51.136;4.210;2022-09-01T03:24:08;6.40;;;2.37;;
16685;SDS011;8456;51.136;4.210;2022-09-01T03:26:37;8.30;;;3.10;;
16685;SDS011;8456;51.136;4.210;2022-09-01T03:29:05;8.37;;;2.60;;
16685;SDS011;8456;51.136;4.210;2022-09-01T03:31:31;8.00;;;2.57;;
16685;SDS011;8456;51.136;4.210;2022-09-01T03:33:59;9.30;;;2.93;;
16685;SDS011;8456;51.136;4.210;2022-09-01T03:36:30;7.40;;;2.60;;
16685;SDS011;8456;51.136;4.210;2022-09-01T03:38:58;10.87;;;2.57;;
16685;SDS011;8456;51.136;4.210;2022-09-01T03:41:25;14.00;;;3.17;;
16685;SDS011;8456;51.136;4.210;2022-09-01T03:43:53;9.70;;;3.00;;
16685;SDS011;8456;51.136;4.210;2022-09-01T03:46:24;7.07;;;2.63;;
16685;SDS011;8456;51.136;4.210;2022-09-01T03:48:55;7.80;;;2.40;;
16685;SDS011;8456;51.136;4.210;2022-09-01T03:51:30;6.00;;;3.10;;
16685;SDS011;8456;51.136;4.210;2022-09-01T03:53:59;11.13;;;2.50;;
16685;SDS011;8456;51.136;4.210;2022-09-01T03:56:26;12.07;;;2.60;;
16685;SDS011;8456;51.136;4.210;2022-09-01T03:58:53;8.83;;;3.00;;
16685;SDS011;8456;51.136;4.210;2022-09-01T04:01:21;9.30;;;3.43;;
16685;SDS011;8456;51.136;4.210;2022-09-01T04:03:48;9.03;;;2.90;;
16685;SDS011;8456;51.136;4.210;2022-09-01T04:06:18;11.07;;;2.53;;
16685;SDS011;8456;51.136;4.210;2022-09-01T04:08:48;8.37;;;2.77;;
16685;SDS011;8456;51.136;4.210;2022-09-01T04:11:18;6.57;;;2.87;;
16685;SDS011;8456;51.136;4.210;2022-09-01T04:13:49;4.50;;;2.80;;
16685;SDS011;8456;51.136;4.210;2022-09-01T04:16:21;9.00;;;3.33;;
16685;SDS011;8456;51.136;4.210;2022-09-01T04:19:08;5.47;;;3.07;;
16685;SDS011;8456;51.136;4.210;2022-09-01T04:21:46;4.37;;;3.13;;
16685;SDS011;8456;51.136;4.210;2022-09-01T04:24:14;9.00;;;3.63;;
16685;SDS011;8456;51.136;4.210;2022-09-01T04:26:42;7.40;;;3.03;;
16685;SDS011;8456;51.136;4.210;2022-09-01T04:29:12;10.83;;;3.70;;
16685;SDS011;8456;51.136;4.210;2022-09-01T04:31:38;7.50;;;3.50;;
16685;SDS011;8456;51.136;4.210;2022-09-01T04:34:05;8.80;;;3.60;;
16685;SDS011;8456;51.136;4.210;2022-09-01T04:36:40;9.07;;;3.90;;
16685;SDS011;8456;51.136;4.210;2022-09-01T04:39:09;12.03;;;3.90;;
16685;SDS011;8456;51.136;4.210;2022-09-01T04:41:37;11.00;;;4.10;;
16685;SDS011;8456;51.136;4.210;2022-09-01T04:44:10;10.43;;;4.00;;
16685;SDS011;8456;51.136;4.210;2022-09-01T04:46:39;7.87;;;4.13;;
16685;SDS011;8456;51.136;4.210;2022-09-01T04:49:12;12.13;;;4.17;;
16685;SDS011;8456;51.136;4.210;2022-09-01T04:51:44;11.87;;;4.63;;
16685;SDS011;8456;51.136;4.210;2022-09-01T04:54:12;7.03;;;4.40;;
16685;SDS011;8456;51.136;4.210;2022-09-01T04:56:41;8.80;;;3.87;;
16685;SDS011;8456;51.136;4.210;2022-09-01T04:59:14;12.77;;;4.80;;
16685;SDS011;8456;51.136;4.210;2022-09-01T05:01:44;14.13;;;4.80;;
16685;SDS011;8456;51.136;4.210;2022-09-01T05:04:15;6.67;;;3.77;;
16685;SDS011;8456;51.136;4.210;2022-09-01T05:06:45;11.97;;;4.53;;
16685;SDS011;8456;51.136;4.210;2022-09-01T05:09:14;13.47;;;4.63;;
16685;SDS011;8456;51.136;4.210;2022-09-01T05:11:55;12.83;;;5.13;;
16685;SDS011;8456;51.136;4.210;2022-09-01T05:14:26;10.10;;;3.93;;
16685;SDS011;8456;51.136;4.210;2022-09-01T05:16:58;7.27;;;4.43;;
16685;SDS011;8456;51.136;4.210;2022-09-01T05:19:26;7.70;;;4.33;;
16685;SDS011;8456;51.136;4.210;2022-09-01T05:21:57;11.53;;;4.23;;
16685;SDS011;8456;51.136;4.210;2022-09-01T05:24:24;10.73;;;4.30;;
16685;SDS011;8456;51.136;4.210;2022-09-01T05:26:57;7.60;;;4.13;;
16685;SDS011;8456;51.136;4.210;2022-09-01T05:29:25;12.80;;;4.70;;
16685;SDS011;8456;51.136;4.210;2022-09-01T05:31:52;13.60;;;4.40;;
16685;SDS011;8456;51.136;4.210;2022-09-01T05:34:22;12.33;;;4.60;;
16685;SDS011;8456;51.136;4.210;2022-09-01T05:36:54;12.73;;;4.87;;
16685;SDS011;8456;51.136;4.210;2022-09-01T05:39:22;14.03;;;4.23;;
16685;SDS011;8456;51.136;4.210;2022-09-01T05:41:49;10.60;;;4.63;;
16685;SDS011;8456;51.136;4.210;2022-09-01T05:44:16;7.93;;;4.20;;
16685;SDS011;8456;51.136;4.210;2022-09-01T05:46:43;16.43;;;5.20;;
16685;SDS011;8456;51.136;4.210;2022-09-01T05:49:09;11.07;;;4.47;;
16685;SDS011;8456;51.136;4.210;2022-09-01T05:51:41;12.87;;;4.90;;
16685;SDS011;8456;51.136;4.210;2022-09-01T05:54:08;7.30;;;4.53;;
16685;SDS011;8456;51.136;4.210;2022-09-01T05:56:36;6.60;;;4.63;;
16685;SDS011;8456;51.136;4.210;2022-09-01T05:59:07;6.27;;;4.13;;
16685;SDS011;8456;51.136;4.210;2022-09-01T06:01:34;10.00;;;4.23;;
16685;SDS011;8456;51.136;4.210;2022-09-01T06:04:03;10.13;;;5.30;;
16685;SDS011;8456;51.136;4.210;2022-09-01T06:06:42;8.00;;;5.00;;
16685;SDS011;8456;51.136;4.210;2022-09-01T06:09:14;14.30;;;5.13;;
16685;SDS011;8456;51.136;4.210;2022-09-01T06:11:45;13.40;;;5.30;;
16685;SDS011;8456;51.136;4.210;2022-09-01T06:14:15;7.90;;;5.10;;
16685;SDS011;8456;51.136;4.210;2022-09-01T06:16:45;13.27;;;5.67;;
16685;SDS011;8456;51.136;4.210;2022-09-01T06:19:13;9.20;;;5.10;;
16685;SDS011;8456;51.136;4.210;2022-09-01T06:21:43;14.20;;;5.63;;
16685;SDS011;8456;51.136;4.210;2022-09-01T06:24:09;7.80;;;5.20;;
16685;SDS011;8456;51.136;4.210;2022-09-01T06:26:36;10.00;;;5.43;;
16685;SDS011;8456;51.136;4.210;2022-09-01T06:29:04;12.90;;;5.30;;
16685;SDS011;8456;51.136;4.210;2022-09-01T06:31:35;14.97;;;5.17;;
16685;SDS011;8456;51.136;4.210;2022-09-01T06:34:08;16.23;;;5.93;;
16685;SDS011;8456;51.136;4.210;2022-09-01T06:36:39;10.43;;;5.43;;
16685;SDS011;8456;51.136;4.210;2022-09-01T06:39:06;9.50;;;5.60;;
16685;SDS011;8456;51.136;4.210;2022-09-01T06:41:33;12.03;;;5.73;;
16685;SDS011;8456;51.136;4.210;2022-09-01T06:44:05;11.97;;;6.13;;
16685;SDS011;8456;51.136;4.210;2022-09-01T06:46:32;11.57;;;6.47;;
16685;SDS011;8456;51.136;4.210;2022-09-01T06:49:00;11.00;;;5.87;;
16685;SDS011;8456;51.136;4.210;2022-09-01T06:51:28;13.50;;;6.23;;
16685;SDS011;8456;51.136;4.210;2022-09-01T06:53:55;13.30;;;5.63;;
16685;SDS011;8456;51.136;4.210;2022-09-01T06:56:31;11.47;;;5.63;;
16685;SDS011;8456;51.136;4.210;2022-09-01T06:59:02;11.43;;;5.77;;
16685;SDS011;8456;51.136;4.210;2022-09-01T07:01:30;11.03;;;5.30;;
16685;SDS011;8456;51.136;4.210;2022-09-01T07:03:57;8.60;;;5.53;;
16685;SDS011;8456;51.136;4.210;2022-09-01T07:06:36;12.33;;;5.53;;
16685;SDS011;8456;51.136;4.210;2022-09-01T07:09:16;11.33;;;5.03;;
16685;SDS011;8456;51.136;4.210;2022-09-01T07:11:57;12.23;;;5.37;;
16685;SDS011;8456;51.136;4.210;2022-09-01T07:14:24;7.90;;;5.60;;
16685;SDS011;8456;51.136;4.210;2022-09-01T07:16:50;12.60;;;5.90;;
16685;SDS011;8456;51.136;4.210;2022-09-01T07:19:16;7.57;;;5.17;;
16685;SDS011;8456;51.136;4.210;2022-09-01T07:21:53;15.60;;;5.63;;
16685;SDS011;8456;51.136;4.210;2022-09-01T07:24:20;12.20;;;5.50;;
16685;SDS011;8456;51.136;4.210;2022-09-01T07:27:17;13.37;;;5.63;;
16685;SDS011;8456;51.136;4.210;2022-09-01T07:29:44;13.17;;;5.80;;
16685;SDS011;8456;51.136;4.210;2022-09-01T07:32:11;11.87;;;5.97;;
16685;SDS011;8456;51.136;4.210;2022-09-01T07:34:38;12.90;;;5.83;;
16685;SDS011;8456;51.136;4.210;2022-09-01T07:37:07;9.20;;;4.50;;
16685;SDS011;8456;51.136;4.210;2022-09-01T07:39:35;11.07;;;5.33;;
16685;SDS011;8456;51.136;4.210;2022-09-01T07:42:26;10.50;;;5.23;;
16685;SDS011;8456;51.136;4.210;2022-09-01T07:45:11;7.23;;;5.10;;
16685;SDS011;8456;51.136;4.210;2022-09-01T07:48:01;8.07;;;5.20;;
16685;SDS011;8456;51.136;4.210;2022-09-01T07:50:35;9.97;;;5.60;;
16685;SDS011;8456;51.136;4.210;2022-09-01T07:53:02;9.77;;;5.17;;
16685;SDS011;8456;51.136;4.210;2022-09-01T07:55:29;13.57;;;5.37;;
16685;SDS011;8456;51.136;4.210;2022-09-01T07:57:56;11.20;;;5.03;;
16685;SDS011;8456;51.136;4.210;2022-09-01T08:00:24;10.60;;;5.23;;
16685;SDS011;8456;51.136;4.210;2022-09-01T08:02:56;10.43;;;5.43;;
16685;SDS011;8456;51.136;4.210;2022-09-01T08:05:22;15.10;;;5.77;;
16685;SDS011;8456;51.136;4.210;2022-09-01T08:07:51;8.50;;;5.13;;
16685;SDS011;8456;51.136;4.210;2022-09-01T08:10:19;13.57;;;6.00;;
16685;SDS011;8456;51.136;4.210;2022-09-01T08:12:45;11.47;;;5.70;;
16685;SDS011;8456;51.136;4.210;2022-09-01T08:15:11;15.07;;;5.43;;
16685;SDS011;8456;51.136;4.210;2022-09-01T08:17:38;8.50;;;4.93;;
16685;SDS011;8456;51.136;4.210;2022-09-01T08:20:09;9.90;;;5.43;;
16685;SDS011;8456;51.136;4.210;2022-09-01T08:22:47;12.68;;;5.53;;
16685;SDS011;8456;51.136;4.210;2022-09-01T08:25:34;13.80;;;5.03;;
16685;SDS011;8456;51.136;4.210;2022-09-01T08:28:01;10.55;;;5.30;;
16685;SDS011;8456;51.136;4.210;2022-09-01T08:30:28;11.50;;;5.22;;
16685;SDS011;8456;51.136;4.210;2022-09-01T08:32:57;18.50;;;5.50;;
16685;SDS011;8456;51.136;4.210;2022-09-01T08:35:25;6.43;;;4.30;;
16685;SDS011;8456;51.136;4.210;2022-09-01T08:37:55;9.27;;;4.50;;
16685;SDS011;8456;51.136;4.210;2022-09-01T08:40:21;8.02;;;4.18;;
16685;SDS011;8456;51.136;4.210;2022-09-01T08:43:31;7.60;;;4.85;;
16685;SDS011;8456;51.136;4.210;2022-09-01T08:45:53;10.52;;;4.78;;
16685;SDS011;8456;51.136;4.210;2022-09-01T08:54:09;11.63;;;5.50;;
16685;SDS011;8456;51.136;4.210;2022-09-01T08:56:39;11.02;;;5.25;;
16685;SDS011;8456;51.136;4.210;2022-09-01T08:59:06;7.32;;;4.60;;
16685;SDS011;8456;51.136;4.210;2022-09-01T09:10:11;11.02;;;4.18;;
16685;SDS011;8456;51.136;4.210;2022-09-01T09:15:17;12.00;;;3.58;;
16685;SDS011;8456;51.136;4.210;2022-09-01T09:18:11;13.05;;;4.90;;
16685;SDS011;8456;51.136;4.210;2022-09-01T09:20:53;9.73;;;5.63;;
16685;SDS011;8456;51.136;4.210;2022-09-01T09:23:23;12.40;;;5.70;;
16685;SDS011;8456;51.136;4.210;2022-09-01T09:25:55;13.18;;;5.70;;
16685;SDS011;8456;51.136;4.210;2022-09-01T09:28:21;9.48;;;5.97;;
16685;SDS011;8456;51.136;4.210;2022-09-01T09:30:47;15.60;;;6.22;;
16685;SDS011;8456;51.136;4.210;2022-09-01T09:33:36;9.20;;;5.93;;
16685;SDS011;8456;51.136;4.210;2022-09-01T09:36:15;10.65;;;5.88;;
16685;SDS011;8456;51.136;4.210;2022-09-01T09:38:45;15.30;;;6.03;;
16685;SDS011;8456;51.136;4.210;2022-09-01T09:41:16;13.27;;;5.30;;
16685;SDS011;8456;51.136;4.210;2022-09-01T09:44:05;10.52;;;5.55;;
16685;SDS011;8456;51.136;4.210;2022-09-01T09:46:58;9.68;;;4.65;;
16685;SDS011;8456;51.136;4.210;2022-09-01T09:49:26;10.05;;;4.88;;
16685;SDS011;8456;51.136;4.210;2022-09-01T09:51:55;10.57;;;4.50;;
16685;SDS011;8456;51.136;4.210;2022-09-01T09:54:39;10.48;;;3.90;;
16685;SDS011;8456;51.136;4.210;2022-09-01T09:57:21;7.95;;;3.75;;
16685;SDS011;8456;51.136;4.210;2022-09-01T10:04:50;11.60;;;3.83;;
16685;SDS011;8456;51.136;4.210;2022-09-01T10:07:30;6.55;;;3.10;;
16685;SDS011;8456;51.136;4.210;2022-09-01T10:10:06;9.95;;;3.15;;
16685;SDS011;8456;51.136;4.210;2022-09-01T10:12:50;6.43;;;2.63;;
16685;SDS011;8456;51.136;4.210;2022-09-01T10:15:18;4.57;;;2.30;;
16685;SDS011;8456;51.136;4.210;2022-09-01T10:17:47;5.77;;;2.70;;
16685;SDS011;8456;51.136;4.210;2022-09-01T10:20:20;7.57;;;2.53;;
16685;SDS011;8456;51.136;4.210;2022-09-01T10:22:49;6.30;;;2.47;;
16685;SDS011;8456;51.136;4.210;2022-09-01T10:25:18;5.73;;;2.10;;
16685;SDS011;8456;51.136;4.210;2022-09-01T10:27:51;5.38;;;2.38;;
16685;SDS011;8456;51.136;4.210;2022-09-01T10:30:24;6.32;;;1.88;;
16685;SDS011;8456;51.136;4.210;2022-09-01T10:32:55;7.93;;;1.90;;
16685;SDS011;8456;51.136;4.210;2022-09-01T10:35:35;3.47;;;1.53;;
16685;SDS011;8456;51.136;4.210;2022-09-01T10:38:05;5.77;;;1.90;;
16685;SDS011;8456;51.136;4.210;2022-09-01T10:40:34;5.43;;;1.50;;
16685;SDS011;8456;51.136;4.210;2022-09-01T10:43:24;10.73;;;2.10;;
16685;SDS011;8456;51.136;4.210;2022-09-01T10:45:51;5.30;;;1.80;;
16685;SDS011;8456;51.136;4.210;2022-09-01T10:50:50;4.20;;;1.90;;
16685;SDS011;8456;51.136;4.210;2022-09-01T10:53:40;4.77;;;1.47;;
16685;SDS011;8456;51.136;4.210;2022-09-01T11:04:05;3.00;;;1.43;;
16685;SDS011;8456;51.136;4.210;2022-09-01T11:23:06;2.67;;;1.50;;
16685;SDS011;8456;51.136;4.210;2022-09-01T11:28:08;5.13;;;1.67;;
16685;SDS011;8456;51.136;4.210;2022-09-01T11:30:45;4.53;;;1.53;;
16685;SDS011;8456;51.136;4.210;2022-09-01T11:33:25;4.33;;;1.50;;
16685;SDS011;8456;51.136;4.210;2022-09-01T11:39:06;6.40;;;1.60;;
16685;SDS011;8456;51.136;4.210;2022-09-01T11:41:57;3.30;;;1.40;;
16685;SDS011;8456;51.136;4.210;2022-09-01T11:44:41;2.27;;;1.43;;
16685;SDS011;8456;51.136;4.210;2022-09-01T11:47:19;6.53;;;1.80;;
16685;SDS011;8456;51.136;4.210;2022-09-01T11:49:56;4.87;;;1.57;;
16685;SDS011;8456;51.136;4.210;2022-09-01T11:52:26;2.07;;;1.63;;
16685;SDS011;8456;51.136;4.210;2022-09-01T11:54:54;4.13;;;1.50;;
16685;SDS011;8456;51.136;4.210;2022-09-01T11:59:57;4.93;;;1.53;;
16685;SDS011;8456;51.136;4.210;2022-09-01T12:02:29;2.27;;;1.30;;
16685;SDS011;8456;51.136;4.210;2022-09-01T12:04:59;2.83;;;1.43;;
16685;SDS011;8456;51.136;4.210;2022-09-01T12:07:29;3.20;;;1.60;;
16685;SDS011;8456;51.136;4.210;2022-09-01T12:13:08;3.37;;;1.53;;
16685;SDS011;8456;51.136;4.210;2022-09-01T12:15:43;4.83;;;1.47;;
16685;SDS011;8456;51.136;4.210;2022-09-01T12:18:21;3.50;;;1.27;;
16685;SDS011;8456;51.136;4.210;2022-09-01T12:20:49;3.67;;;1.50;;
16685;SDS011;8456;51.136;4.210;2022-09-01T12:23:27;3.23;;;1.63;;
16685;SDS011;8456;51.136;4.210;2022-09-01T12:25:55;4.17;;;1.70;;
16685;SDS011;8456;51.136;4.210;2022-09-01T12:28:37;5.20;;;1.70;;
16685;SDS011;8456;51.136;4.210;2022-09-01T12:31:16;4.77;;;1.47;;
16685;SDS011;8456;51.136;4.210;2022-09-01T12:33:50;6.67;;;1.60;;
16685;SDS011;8456;51.136;4.210;2022-09-01T12:36:24;3.90;;;1.60;;
16685;SDS011;8456;51.136;4.210;2022-09-01T12:38:53;7.13;;;2.00;;
16685;SDS011;8456;51.136;4.210;2022-09-01T12:41:34;3.77;;;1.67;;
16685;SDS011;8456;51.136;4.210;2022-09-01T12:46:50;5.13;;;1.63;;
16685;SDS011;8456;51.136;4.210;2022-09-01T12:49:18;3.53;;;1.47;;
16685;SDS011;8456;51.136;4.210;2022-09-01T12:51:49;8.33;;;1.90;;
16685;SDS011;8456;51.136;4.210;2022-09-01T12:54:34;4.20;;;1.90;;
16685;SDS011;8456;51.136;4.210;2022-09-01T12:56:59;2.37;;;1.80;;
16685;SDS011;8456;51.136;4.210;2022-09-01T12:59:25;4.27;;;1.67;;
16685;SDS011;8456;51.136;4.210;2022-09-01T13:01:51;7.47;;;2.03;;
16685;SDS011;8456;51.136;4.210;2022-09-01T13:06:49;3.73;;;2.00;;
16685;SDS011;8456;51.136;4.210;2022-09-01T13:09:16;3.80;;;1.87;;
16685;SDS011;8456;51.136;4.210;2022-09-01T13:11:42;7.40;;;1.73;;
16685;SDS011;8456;51.136;4.210;2022-09-01T13:14:08;6.20;;;1.63;;
16685;SDS011;8456;51.136;4.210;2022-09-01T13:16:35;5.47;;;1.90;;
16685;SDS011;8456;51.136;4.210;2022-09-01T13:19:01;8.20;;;2.17;;
16685;SDS011;8456;51.136;4.210;2022-09-01T13:21:27;3.17;;;1.80;;
16685;SDS011;8456;51.136;4.210;2022-09-01T13:23:54;5.70;;;1.73;;
16685;SDS011;8456;51.136;4.210;2022-09-01T13:26:20;5.17;;;1.70;;
16685;SDS011;8456;51.136;4.210;2022-09-01T13:28:46;5.57;;;2.10;;
16685;SDS011;8456;51.136;4.210;2022-09-01T13:31:12;2.47;;;1.83;;
16685;SDS011;8456;51.136;4.210;2022-09-01T13:33:38;5.53;;;1.70;;
16685;SDS011;8456;51.136;4.210;2022-09-01T13:36:04;5.73;;;1.70;;
16685;SDS011;8456;51.136;4.210;2022-09-01T13:38:30;3.47;;;1.60;;
16685;SDS011;8456;51.136;4.210;2022-09-01T13:40:56;5.17;;;1.53;;
16685;SDS011;8456;51.136;4.210;2022-09-01T13:43:24;2.83;;;1.70;;
16685;SDS011;8456;51.136;4.210;2022-09-01T13:45:51;6.40;;;2.10;;
16685;SDS011;8456;51.136;4.210;2022-09-01T13:48:17;7.13;;;1.73;;
16685;SDS011;8456;51.136;4.210;2022-09-01T13:50:45;4.60;;;2.10;;
16685;SDS011;8456;51.136;4.210;2022-09-01T13:53:13;2.60;;;1.70;;
16685;SDS011;8456;51.136;4.210;2022-09-01T13:55:40;2.63;;;1.67;;
16685;SDS011;8456;51.136;4.210;2022-09-01T13:58:06;5.47;;;2.00;;
16685;SDS011;8456;51.136;4.210;2022-09-01T14:00:34;5.70;;;1.63;;
16685;SDS011;8456;51.136;4.210;2022-09-01T14:03:05;1.87;;;1.57;;
16685;SDS011;8456;51.136;4.210;2022-09-01T14:05:34;3.13;;;1.80;;
16685;SDS011;8456;51.136;4.210;2022-09-01T14:08:03;3.07;;;1.60;;
16685;SDS011;8456;51.136;4.210;2022-09-01T14:10:30;3.73;;;1.80;;
16685;SDS011;8456;51.136;4.210;2022-09-01T14:12:57;6.53;;;1.83;;
16685;SDS011;8456;51.136;4.210;2022-09-01T14:15:23;3.10;;;1.50;;
16685;SDS011;8456;51.136;4.210;2022-09-01T14:17:50;2.07;;;1.60;;
16685;SDS011;8456;51.136;4.210;2022-09-01T14:20:19;7.50;;;2.00;;
16685;SDS011;8456;51.136;4.210;2022-09-01T14:22:47;4.73;;;1.70;;
16685;SDS011;8456;51.136;4.210;2022-09-01T14:25:14;3.17;;;1.77;;
16685;SDS011;8456;51.136;4.210;2022-09-01T14:27:41;3.00;;;1.40;;
16685;SDS011;8456;51.136;4.210;2022-09-01T14:30:09;3.93;;;1.70;;
16685;SDS011;8456;51.136;4.210;2022-09-01T14:32:36;3.77;;;1.90;;
16685;SDS011;8456;51.136;4.210;2022-09-01T14:35:02;5.70;;;1.90;;
16685;SDS011;8456;51.136;4.210;2022-09-01T14:37:28;2.97;;;1.70;;
16685;SDS011;8456;51.136;4.210;2022-09-01T14:39:55;3.83;;;1.70;;
16685;SDS011;8456;51.136;4.210;2022-09-01T14:42:22;2.43;;;1.70;;
16685;SDS011;8456;51.136;4.210;2022-09-01T14:44:50;4.97;;;1.70;;
16685;SDS011;8456;51.136;4.210;2022-09-01T14:47:16;4.50;;;1.70;;
16685;SDS011;8456;51.136;4.210;2022-09-01T14:49:43;2.80;;;1.83;;
16685;SDS011;8456;51.136;4.210;2022-09-01T14:52:09;2.03;;;1.40;;
16685;SDS011;8456;51.136;4.210;2022-09-01T14:54:35;5.60;;;1.57;;
16685;SDS011;8456;51.136;4.210;2022-09-01T14:57:04;5.80;;;2.00;;
16685;SDS011;8456;51.136;4.210;2022-09-01T14:59:31;3.63;;;1.53;;
16685;SDS011;8456;51.136;4.210;2022-09-01T15:01:57;4.53;;;1.60;;
16685;SDS011;8456;51.136;4.210;2022-09-01T15:04:23;2.47;;;1.60;;
16685;SDS011;8456;51.136;4.210;2022-09-01T15:06:49;3.97;;;1.80;;
16685;SDS011;8456;51.136;4.210;2022-09-01T15:09:15;5.47;;;2.27;;
16685;SDS011;8456;51.136;4.210;2022-09-01T15:11:41;4.90;;;1.63;;
16685;SDS011;8456;51.136;4.210;2022-09-01T15:14:07;4.00;;;1.50;;
16685;SDS011;8456;51.136;4.210;2022-09-01T15:16:34;2.73;;;1.63;;
16685;SDS011;8456;51.136;4.210;2022-09-01T15:19:05;4.60;;;1.60;;
16685;SDS011;8456;51.136;4.210;2022-09-01T15:21:34;4.10;;;1.60;;
16685;SDS011;8456;51.136;4.210;2022-09-01T15:24:00;5.20;;;1.60;;
16685;SDS011;8456;51.136;4.210;2022-09-01T15:26:27;3.13;;;1.53;;
16685;SDS011;8456;51.136;4.210;2022-09-01T15:28:54;3.93;;;1.70;;
16685;SDS011;8456;51.136;4.210;2022-09-01T15:31:21;3.77;;;1.50;;
16685;SDS011;8456;51.136;4.210;2022-09-01T15:33:48;3.53;;;1.53;;
16685;SDS011;8456;51.136;4.210;2022-09-01T15:36:21;2.80;;;1.57;;
16685;SDS011;8456;51.136;4.210;2022-09-01T15:38:48;5.43;;;1.50;;
16685;SDS011;8456;51.136;4.210;2022-09-01T15:41:18;4.70;;;1.50;;
16685;SDS011;8456;51.136;4.210;2022-09-01T15:43:45;4.43;;;1.57;;
16685;SDS011;8456;51.136;4.210;2022-09-01T15:46:11;3.57;;;1.17;;
16685;SDS011;8456;51.136;4.210;2022-09-01T15:48:38;5.07;;;2.13;;
16685;SDS011;8456;51.136;4.210;2022-09-01T15:54:04;3.83;;;1.33;;
16685;SDS011;8456;51.136;4.210;2022-09-01T15:56:32;6.97;;;1.57;;
16685;SDS011;8456;51.136;4.210;2022-09-01T15:58:58;6.80;;;1.60;;
16685;SDS011;8456;51.136;4.210;2022-09-01T16:01:25;4.17;;;1.27;;
16685;SDS011;8456;51.136;4.210;2022-09-01T16:03:52;7.60;;;1.80;;
16685;SDS011;8456;51.136;4.210;2022-09-01T16:06:18;4.33;;;1.53;;
16685;SDS011;8456;51.136;4.210;2022-09-01T16:08:44;4.73;;;1.37;;
16685;SDS011;8456;51.136;4.210;2022-09-01T16:11:10;9.13;;;2.00;;
16685;SDS011;8456;51.136;4.210;2022-09-01T16:13:37;4.07;;;1.67;;
16685;SDS011;8456;51.136;4.210;2022-09-01T16:18:54;5.50;;;1.70;;
16685;SDS011;8456;51.136;4.210;2022-09-01T16:21:40;2.97;;;1.27;;
16685;SDS011;8456;51.136;4.210;2022-09-01T16:24:08;4.93;;;1.70;;
16685;SDS011;8456;51.136;4.210;2022-09-01T16:26:36;4.73;;;1.80;;
16685;SDS011;8456;51.136;4.210;2022-09-01T16:29:05;2.43;;;1.47;;
16685;SDS011;8456;51.136;4.210;2022-09-01T16:31:35;3.97;;;1.40;;